sensor_id;sensor_type;location;lat;lon;timestamp;temperature;humidity
29777;DHT22;16677;52.224;7.484;2024-02-14T00:02:23;8.00;1.00
29777;DHT22;16677;52.224;7.484;2024-02-14T00:04:52;8.00;1.00
29777;DHT22;16677;52.224;7.484;2024-02-14T00:07:20;8.10;99.90
29777;DHT22;16677;52.224;7.484;2024-02-14T00:09:47;8.10;99.90
29777;DHT22;16677;52.224;7.484;2024-02-14T00:12:14;8.10;1.00
29777;DHT22;16677;52.224;7.484;2024-02-14T00:14:41;8.10;19.70
29777;DHT22;16677;52.224;7.484;2024-02-14T00:17:11;8.10;99.90
29777;DHT22;16677;52.224;7.484;2024-02-14T00:19:39;8.10;73.40
29777;DHT22;16677;52.224;7.484;2024-02-14T00:22:06;8.10;1.00
29777;DHT22;16677;52.224;7.484;2024-02-14T00:24:33;8.10;1.00
29777;DHT22;16677;52.224;7.484;2024-02-14T00:27:02;8.20;99.90
29777;DHT22;16677;52.224;7.484;2024-02-14T00:29:30;8.20;99.90
29777;DHT22;16677;52.224;7.484;2024-02-14T00:31:56;8.20;1.00
29777;DHT22;16677;52.224;7.484;2024-02-14T00:34:23;8.20;99.90
29777;DHT22;16677;52.224;7.484;2024-02-14T00:36:50;8.20;1.00
29777;DHT22;16677;52.224;7.484;2024-02-14T00:39:17;8.10;99.90
29777;DHT22;16677;52.224;7.484;2024-02-14T00:41:46;8.10;1.00
29777;DHT22;16677;52.224;7.484;2024-02-14T00:44:13;8.10;99.90
29777;DHT22;16677;52.224;7.484;2024-02-14T00:46:43;8.00;1.00
29777;DHT22;16677;52.224;7.484;2024-02-14T00:49:10;8.00;99.90
29777;DHT22;16677;52.224;7.484;2024-02-14T00:51:37;8.00;99.90
29777;DHT22;16677;52.224;7.484;2024-02-14T00:54:06;8.00;1.00
29777;DHT22;16677;52.224;7.484;2024-02-14T00:56:34;7.90;99.90
29777;DHT22;16677;52.224;7.484;2024-02-14T00:59:01;7.90;1.00
29777;DHT22;16677;52.224;7.484;2024-02-14T01:01:28;7.90;1.00
29777;DHT22;16677;52.224;7.484;2024-02-14T01:03:57;7.90;1.00
29777;DHT22;16677;52.224;7.484;2024-02-14T01:06:24;7.90;1.00
29777;DHT22;16677;52.224;7.484;2024-02-14T01:08:51;7.90;1.00
29777;DHT22;16677;52.224;7.484;2024-02-14T01:11:18;7.80;1.00
29777;DHT22;16677;52.224;7.484;2024-02-14T01:13:45;7.80;1.00
29777;DHT22;16677;52.224;7.484;2024-02-14T01:16:12;7.90;1.00
29777;DHT22;16677;52.224;7.484;2024-02-14T01:18:39;7.80;1.00
29777;DHT22;16677;52.224;7.484;2024-02-14T01:21:06;7.80;1.00
29777;DHT22;16677;52.224;7.484;2024-02-14T01:23:33;7.90;1.00
29777;DHT22;16677;52.224;7.484;2024-02-14T01:26:01;7.80;1.00
29777;DHT22;16677;52.224;7.484;2024-02-14T01:28:28;7.80;1.00
29777;DHT22;16677;52.224;7.484;2024-02-14T01:30:55;7.80;1.00
29777;DHT22;16677;52.224;7.484;2024-02-14T01:33:23;7.80;1.00
29777;DHT22;16677;52.224;7.484;2024-02-14T01:35:50;7.80;17.90
29777;DHT22;16677;52.224;7.484;2024-02-14T01:38:17;7.90;45.50
29777;DHT22;16677;52.224;7.484;2024-02-14T01:40:44;7.80;63.90
29777;DHT22;16677;52.224;7.484;2024-02-14T01:43:11;7.80;5.50
29777;DHT22;16677;52.224;7.484;2024-02-14T01:45:41;7.90;8.00
29777;DHT22;16677;52.224;7.484;2024-02-14T01:48:08;7.90;5.60
29777;DHT22;16677;52.224;7.484;2024-02-14T01:50:36;7.90;13.20
29777;DHT22;16677;52.224;7.484;2024-02-14T01:53:03;7.90;7.50
29777;DHT22;16677;52.224;7.484;2024-02-14T01:55:30;7.90;12.80
29777;DHT22;16677;52.224;7.484;2024-02-14T01:57:58;7.90;20.30
29777;DHT22;16677;52.224;7.484;2024-02-14T02:00:25;8.00;16.40
29777;DHT22;16677;52.224;7.484;2024-02-14T02:02:52;8.00;22.00
29777;DHT22;16677;52.224;7.484;2024-02-14T02:05:18;8.10;1.00
29777;DHT22;16677;52.224;7.484;2024-02-14T02:07:45;8.10;1.10
29777;DHT22;16677;52.224;7.484;2024-02-14T02:10:15;8.10;1.30
29777;DHT22;16677;52.224;7.484;2024-02-14T02:12:42;8.20;23.50
29777;DHT22;16677;52.224;7.484;2024-02-14T02:15:09;8.10;19.80
29777;DHT22;16677;52.224;7.484;2024-02-14T02:17:40;8.20;42.00
29777;DHT22;16677;52.224;7.484;2024-02-14T02:20:07;8.10;86.90
29777;DHT22;16677;52.224;7.484;2024-02-14T02:22:35;8.10;99.90
29777;DHT22;16677;52.224;7.484;2024-02-14T02:25:02;8.10;99.90
29777;DHT22;16677;52.224;7.484;2024-02-14T02:27:30;8.10;99.90
29777;DHT22;16677;52.224;7.484;2024-02-14T02:29:56;8.10;99.90
29777;DHT22;16677;52.224;7.484;2024-02-14T02:32:23;8.10;99.90
29777;DHT22;16677;52.224;7.484;2024-02-14T02:34:50;8.10;99.90
29777;DHT22;16677;52.224;7.484;2024-02-14T02:37:17;8.10;99.90
29777;DHT22;16677;52.224;7.484;2024-02-14T02:39:44;8.10;99.90
29777;DHT22;16677;52.224;7.484;2024-02-14T02:42:11;8.10;99.90
29777;DHT22;16677;52.224;7.484;2024-02-14T02:44:38;8.10;99.90
29777;DHT22;16677;52.224;7.484;2024-02-14T02:47:05;8.10;99.90
29777;DHT22;16677;52.224;7.484;2024-02-14T02:49:32;8.20;99.90
29777;DHT22;16677;52.224;7.484;2024-02-14T02:51:59;8.10;99.90
29777;DHT22;16677;52.224;7.484;2024-02-14T02:54:26;8.20;99.90
29777;DHT22;16677;52.224;7.484;2024-02-14T02:56:53;8.20;99.90
29777;DHT22;16677;52.224;7.484;2024-02-14T02:59:20;8.20;99.90
29777;DHT22;16677;52.224;7.484;2024-02-14T03:01:48;8.20;99.90
29777;DHT22;16677;52.224;7.484;2024-02-14T03:04:16;8.30;99.90
29777;DHT22;16677;52.224;7.484;2024-02-14T03:06:43;8.30;99.90
29777;DHT22;16677;52.224;7.484;2024-02-14T03:09:11;8.30;99.90
29777;DHT22;16677;52.224;7.484;2024-02-14T03:11:40;8.30;99.90
29777;DHT22;16677;52.224;7.484;2024-02-14T03:14:07;8.30;99.90
29777;DHT22;16677;52.224;7.484;2024-02-14T03:16:34;8.30;99.90
29777;DHT22;16677;52.224;7.484;2024-02-14T03:19:03;8.40;99.90
29777;DHT22;16677;52.224;7.484;2024-02-14T03:21:31;8.40;99.90
29777;DHT22;16677;52.224;7.484;2024-02-14T03:24:02;8.40;99.90
29777;DHT22;16677;52.224;7.484;2024-02-14T03:26:31;8.40;99.90
29777;DHT22;16677;52.224;7.484;2024-02-14T03:29:01;8.50;99.90
29777;DHT22;16677;52.224;7.484;2024-02-14T03:31:28;8.50;99.90
29777;DHT22;16677;52.224;7.484;2024-02-14T03:33:55;8.50;99.90
29777;DHT22;16677;52.224;7.484;2024-02-14T03:36:22;8.50;99.90
29777;DHT22;16677;52.224;7.484;2024-02-14T03:38:50;8.50;99.90
29777;DHT22;16677;52.224;7.484;2024-02-14T03:41:17;8.50;99.90
29777;DHT22;16677;52.224;7.484;2024-02-14T03:43:44;8.50;99.90
29777;DHT22;16677;52.224;7.484;2024-02-14T03:46:11;8.50;99.90
29777;DHT22;16677;52.224;7.484;2024-02-14T03:48:40;8.60;99.90
29777;DHT22;16677;52.224;7.484;2024-02-14T03:51:08;8.50;99.90
29777;DHT22;16677;52.224;7.484;2024-02-14T03:53:35;8.60;99.90
29777;DHT22;16677;52.224;7.484;2024-02-14T03:56:04;8.50;99.90
29777;DHT22;16677;52.224;7.484;2024-02-14T03:58:31;8.60;99.90
29777;DHT22;16677;52.224;7.484;2024-02-14T04:00:59;8.60;99.90
29777;DHT22;16677;52.224;7.484;2024-02-14T04:03:26;8.60;99.90
29777;DHT22;16677;52.224;7.484;2024-02-14T04:05:55;8.60;99.90
29777;DHT22;16677;52.224;7.484;2024-02-14T04:08:23;8.60;99.90
29777;DHT22;16677;52.224;7.484;2024-02-14T04:10:50;8.70;99.90
29777;DHT22;16677;52.224;7.484;2024-02-14T04:13:17;8.70;99.90
29777;DHT22;16677;52.224;7.484;2024-02-14T04:15:44;8.70;99.90
29777;DHT22;16677;52.224;7.484;2024-02-14T04:18:11;8.70;99.90
29777;DHT22;16677;52.224;7.484;2024-02-14T04:20:38;8.70;99.90
29777;DHT22;16677;52.224;7.484;2024-02-14T04:23:05;8.70;99.90
29777;DHT22;16677;52.224;7.484;2024-02-14T04:25:34;8.80;99.90
29777;DHT22;16677;52.224;7.484;2024-02-14T04:28:04;8.70;99.90
29777;DHT22;16677;52.224;7.484;2024-02-14T04:30:31;8.70;99.90
29777;DHT22;16677;52.224;7.484;2024-02-14T04:32:58;8.80;99.90
29777;DHT22;16677;52.224;7.484;2024-02-14T04:35:25;8.80;99.90
29777;DHT22;16677;52.224;7.484;2024-02-14T04:37:52;8.80;99.90
29777;DHT22;16677;52.224;7.484;2024-02-14T04:40:19;8.80;99.90
29777;DHT22;16677;52.224;7.484;2024-02-14T04:42:46;8.80;99.90
29777;DHT22;16677;52.224;7.484;2024-02-14T04:45:13;8.90;99.90
29777;DHT22;16677;52.224;7.484;2024-02-14T04:47:40;8.90;99.90
29777;DHT22;16677;52.224;7.484;2024-02-14T04:50:07;8.90;99.90
29777;DHT22;16677;52.224;7.484;2024-02-14T04:52:34;8.90;99.90
29777;DHT22;16677;52.224;7.484;2024-02-14T04:55:01;8.90;99.90
29777;DHT22;16677;52.224;7.484;2024-02-14T04:57:28;8.90;99.90
29777;DHT22;16677;52.224;7.484;2024-02-14T04:59:54;8.90;99.90
29777;DHT22;16677;52.224;7.484;2024-02-14T05:02:21;9.00;99.90
29777;DHT22;16677;52.224;7.484;2024-02-14T05:04:48;9.10;99.90
29777;DHT22;16677;52.224;7.484;2024-02-14T05:07:15;9.00;99.90
29777;DHT22;16677;52.224;7.484;2024-02-14T05:09:43;9.00;99.90
29777;DHT22;16677;52.224;7.484;2024-02-14T05:12:11;9.10;99.90
29777;DHT22;16677;52.224;7.484;2024-02-14T05:14:38;9.10;99.90
29777;DHT22;16677;52.224;7.484;2024-02-14T05:17:05;9.10;99.90
29777;DHT22;16677;52.224;7.484;2024-02-14T05:19:32;9.20;99.90
29777;DHT22;16677;52.224;7.484;2024-02-14T05:21:59;9.20;99.90
29777;DHT22;16677;52.224;7.484;2024-02-14T05:24:26;9.20;99.90
29777;DHT22;16677;52.224;7.484;2024-02-14T05:26:57;9.20;99.90
29777;DHT22;16677;52.224;7.484;2024-02-14T05:29:24;9.30;99.90
29777;DHT22;16677;52.224;7.484;2024-02-14T05:31:52;9.20;99.90
29777;DHT22;16677;52.224;7.484;2024-02-14T05:34:22;9.30;99.90
29777;DHT22;16677;52.224;7.484;2024-02-14T05:36:49;9.30;99.90
29777;DHT22;16677;52.224;7.484;2024-02-14T05:39:16;9.30;99.90
29777;DHT22;16677;52.224;7.484;2024-02-14T05:41:42;9.30;99.90
29777;DHT22;16677;52.224;7.484;2024-02-14T05:44:10;9.30;99.90
29777;DHT22;16677;52.224;7.484;2024-02-14T05:46:36;9.40;99.90
29777;DHT22;16677;52.224;7.484;2024-02-14T05:49:03;9.30;99.90
29777;DHT22;16677;52.224;7.484;2024-02-14T05:51:30;9.40;99.90
29777;DHT22;16677;52.224;7.484;2024-02-14T05:53:58;9.40;99.90
29777;DHT22;16677;52.224;7.484;2024-02-14T05:56:25;9.40;99.90
29777;DHT22;16677;52.224;7.484;2024-02-14T05:58:52;9.40;99.90
29777;DHT22;16677;52.224;7.484;2024-02-14T06:01:19;9.50;99.90
29777;DHT22;16677;52.224;7.484;2024-02-14T06:03:46;9.50;99.90
29777;DHT22;16677;52.224;7.484;2024-02-14T06:06:13;9.50;99.90
29777;DHT22;16677;52.224;7.484;2024-02-14T06:08:40;9.60;99.90
29777;DHT22;16677;52.224;7.484;2024-02-14T06:11:07;9.60;99.90
29777;DHT22;16677;52.224;7.484;2024-02-14T06:13:34;9.60;99.90
29777;DHT22;16677;52.224;7.484;2024-02-14T06:16:02;9.60;99.90
29777;DHT22;16677;52.224;7.484;2024-02-14T06:18:29;9.70;99.90
29777;DHT22;16677;52.224;7.484;2024-02-14T06:20:59;9.70;99.90
29777;DHT22;16677;52.224;7.484;2024-02-14T06:23:26;9.70;99.90
29777;DHT22;16677;52.224;7.484;2024-02-14T06:25:53;9.70;99.90
29777;DHT22;16677;52.224;7.484;2024-02-14T06:28:20;9.70;99.90
29777;DHT22;16677;52.224;7.484;2024-02-14T06:30:50;9.70;99.90
29777;DHT22;16677;52.224;7.484;2024-02-14T06:33:17;9.70;99.90
29777;DHT22;16677;52.224;7.484;2024-02-14T06:35:45;9.70;99.90
29777;DHT22;16677;52.224;7.484;2024-02-14T06:38:16;9.80;99.90
29777;DHT22;16677;52.224;7.484;2024-02-14T06:40:45;9.80;99.90
29777;DHT22;16677;52.224;7.484;2024-02-14T06:43:13;9.80;99.90
29777;DHT22;16677;52.224;7.484;2024-02-14T06:45:39;9.90;99.90
29777;DHT22;16677;52.224;7.484;2024-02-14T06:48:07;9.90;99.90
29777;DHT22;16677;52.224;7.484;2024-02-14T06:50:35;9.90;99.90
29777;DHT22;16677;52.224;7.484;2024-02-14T06:53:08;9.90;99.90
29777;DHT22;16677;52.224;7.484;2024-02-14T06:55:35;10.00;99.90
29777;DHT22;16677;52.224;7.484;2024-02-14T06:58:04;10.00;99.90
29777;DHT22;16677;52.224;7.484;2024-02-14T07:00:32;10.00;99.90
29777;DHT22;16677;52.224;7.484;2024-02-14T07:02:59;10.10;99.90
29777;DHT22;16677;52.224;7.484;2024-02-14T07:05:26;10.10;99.90
29777;DHT22;16677;52.224;7.484;2024-02-14T07:07:57;10.10;99.90
29777;DHT22;16677;52.224;7.484;2024-02-14T07:10:33;10.20;99.90
29777;DHT22;16677;52.224;7.484;2024-02-14T07:13:00;10.20;99.90
29777;DHT22;16677;52.224;7.484;2024-02-14T07:15:29;10.20;99.90
29777;DHT22;16677;52.224;7.484;2024-02-14T07:18:06;10.20;99.90
29777;DHT22;16677;52.224;7.484;2024-02-14T07:20:35;10.20;99.90
29777;DHT22;16677;52.224;7.484;2024-02-14T07:23:02;10.20;99.90
29777;DHT22;16677;52.224;7.484;2024-02-14T07:25:30;10.20;99.90
29777;DHT22;16677;52.224;7.484;2024-02-14T07:27:57;10.20;99.90
29777;DHT22;16677;52.224;7.484;2024-02-14T07:30:24;10.20;99.90
29777;DHT22;16677;52.224;7.484;2024-02-14T07:32:51;10.20;99.90
29777;DHT22;16677;52.224;7.484;2024-02-14T07:35:18;10.30;99.90
29777;DHT22;16677;52.224;7.484;2024-02-14T07:37:45;10.30;99.90
29777;DHT22;16677;52.224;7.484;2024-02-14T07:40:12;10.30;92.50
29777;DHT22;16677;52.224;7.484;2024-02-14T07:42:42;10.30;64.80
29777;DHT22;16677;52.224;7.484;2024-02-14T07:45:09;10.30;81.50
29777;DHT22;16677;52.224;7.484;2024-02-14T07:47:36;10.40;90.80
29777;DHT22;16677;52.224;7.484;2024-02-14T07:50:03;10.40;75.90
29777;DHT22;16677;52.224;7.484;2024-02-14T07:52:30;10.20;69.20
29777;DHT22;16677;52.224;7.484;2024-02-14T07:55:07;10.40;61.10
29777;DHT22;16677;52.224;7.484;2024-02-14T07:57:37;10.40;49.50
29777;DHT22;16677;52.224;7.484;2024-02-14T08:00:07;10.40;46.40
29777;DHT22;16677;52.224;7.484;2024-02-14T08:02:37;10.50;24.60
29777;DHT22;16677;52.224;7.484;2024-02-14T08:05:04;10.40;38.10
29777;DHT22;16677;52.224;7.484;2024-02-14T08:07:35;10.40;54.00
29777;DHT22;16677;52.224;7.484;2024-02-14T08:10:02;10.50;68.10
29777;DHT22;16677;52.224;7.484;2024-02-14T08:12:29;10.50;64.60
29777;DHT22;16677;52.224;7.484;2024-02-14T08:14:56;10.50;84.00
29777;DHT22;16677;52.224;7.484;2024-02-14T08:17:23;10.50;99.90
29777;DHT22;16677;52.224;7.484;2024-02-14T08:19:50;10.50;99.90
29777;DHT22;16677;52.224;7.484;2024-02-14T08:22:17;10.50;99.90
29777;DHT22;16677;52.224;7.484;2024-02-14T08:24:44;10.60;99.90
29777;DHT22;16677;52.224;7.484;2024-02-14T08:27:12;10.50;99.90
29777;DHT22;16677;52.224;7.484;2024-02-14T08:29:39;10.50;99.90
29777;DHT22;16677;52.224;7.484;2024-02-14T08:32:08;10.50;99.90
29777;DHT22;16677;52.224;7.484;2024-02-14T08:34:35;10.50;99.90
29777;DHT22;16677;52.224;7.484;2024-02-14T08:37:02;10.70;99.90
29777;DHT22;16677;52.224;7.484;2024-02-14T08:39:29;10.70;99.90
29777;DHT22;16677;52.224;7.484;2024-02-14T08:41:56;10.60;99.90
29777;DHT22;16677;52.224;7.484;2024-02-14T08:44:23;10.60;99.90
29777;DHT22;16677;52.224;7.484;2024-02-14T08:46:50;10.70;99.90
29777;DHT22;16677;52.224;7.484;2024-02-14T08:49:17;10.60;99.90
29777;DHT22;16677;52.224;7.484;2024-02-14T08:51:44;10.60;99.90
29777;DHT22;16677;52.224;7.484;2024-02-14T08:54:12;10.50;99.90
29777;DHT22;16677;52.224;7.484;2024-02-14T08:56:42;10.60;99.90
29777;DHT22;16677;52.224;7.484;2024-02-14T08:59:09;10.60;99.90
29777;DHT22;16677;52.224;7.484;2024-02-14T09:01:37;10.50;99.90
29777;DHT22;16677;52.224;7.484;2024-02-14T09:04:04;10.60;99.90
29777;DHT22;16677;52.224;7.484;2024-02-14T09:06:31;10.60;99.90
29777;DHT22;16677;52.224;7.484;2024-02-14T09:08:59;10.60;99.90
29777;DHT22;16677;52.224;7.484;2024-02-14T09:11:26;10.60;99.90
29777;DHT22;16677;52.224;7.484;2024-02-14T09:13:53;10.60;99.90
29777;DHT22;16677;52.224;7.484;2024-02-14T09:16:22;10.70;99.90
29777;DHT22;16677;52.224;7.484;2024-02-14T09:18:49;10.70;99.90
29777;DHT22;16677;52.224;7.484;2024-02-14T09:21:16;10.80;99.90
29777;DHT22;16677;52.224;7.484;2024-02-14T09:23:46;10.80;99.90
29777;DHT22;16677;52.224;7.484;2024-02-14T09:26:13;10.80;99.90
29777;DHT22;16677;52.224;7.484;2024-02-14T09:28:40;10.80;99.90
29777;DHT22;16677;52.224;7.484;2024-02-14T09:31:07;10.80;99.90
29777;DHT22;16677;52.224;7.484;2024-02-14T09:33:39;10.80;99.90
29777;DHT22;16677;52.224;7.484;2024-02-14T09:36:07;10.80;99.90
29777;DHT22;16677;52.224;7.484;2024-02-14T09:38:34;10.80;99.90
29777;DHT22;16677;52.224;7.484;2024-02-14T09:41:11;10.80;99.90
29777;DHT22;16677;52.224;7.484;2024-02-14T09:43:44;10.80;99.90
29777;DHT22;16677;52.224;7.484;2024-02-14T09:46:12;10.80;99.90
29777;DHT22;16677;52.224;7.484;2024-02-14T09:48:43;10.90;99.90
29777;DHT22;16677;52.224;7.484;2024-02-14T09:51:11;10.80;99.90
29777;DHT22;16677;52.224;7.484;2024-02-14T09:53:39;10.80;99.90
29777;DHT22;16677;52.224;7.484;2024-02-14T09:56:08;10.80;99.90
29777;DHT22;16677;52.224;7.484;2024-02-14T09:58:36;10.90;99.90
29777;DHT22;16677;52.224;7.484;2024-02-14T10:01:04;10.90;99.90
29777;DHT22;16677;52.224;7.484;2024-02-14T10:03:31;11.00;99.90
29777;DHT22;16677;52.224;7.484;2024-02-14T10:05:58;11.00;99.90
29777;DHT22;16677;52.224;7.484;2024-02-14T10:08:25;11.00;99.90
29777;DHT22;16677;52.224;7.484;2024-02-14T10:10:53;11.00;99.90
29777;DHT22;16677;52.224;7.484;2024-02-14T10:13:21;11.20;99.90
29777;DHT22;16677;52.224;7.484;2024-02-14T10:15:49;11.20;86.10
29777;DHT22;16677;52.224;7.484;2024-02-14T10:18:16;11.20;72.30
29777;DHT22;16677;52.224;7.484;2024-02-14T10:20:55;11.30;4.00
29777;DHT22;16677;52.224;7.484;2024-02-14T10:23:23;11.40;6.80
29777;DHT22;16677;52.224;7.484;2024-02-14T10:25:52;11.40;1.00
29777;DHT22;16677;52.224;7.484;2024-02-14T10:28:20;11.40;1.00
29777;DHT22;16677;52.224;7.484;2024-02-14T10:30:55;11.40;1.00
29777;DHT22;16677;52.224;7.484;2024-02-14T10:33:22;11.50;1.00
29777;DHT22;16677;52.224;7.484;2024-02-14T10:35:53;11.50;1.00
29777;DHT22;16677;52.224;7.484;2024-02-14T10:38:24;11.40;1.00
29777;DHT22;16677;52.224;7.484;2024-02-14T10:40:51;11.50;1.00
29777;DHT22;16677;52.224;7.484;2024-02-14T10:43:19;11.50;1.00
29777;DHT22;16677;52.224;7.484;2024-02-14T10:45:46;11.50;1.00
29777;DHT22;16677;52.224;7.484;2024-02-14T10:48:12;11.50;1.00
29777;DHT22;16677;52.224;7.484;2024-02-14T10:50:40;11.40;1.00
29777;DHT22;16677;52.224;7.484;2024-02-14T10:53:10;11.40;1.00
29777;DHT22;16677;52.224;7.484;2024-02-14T10:55:39;11.50;1.00
29777;DHT22;16677;52.224;7.484;2024-02-14T10:58:07;11.50;1.00
29777;DHT22;16677;52.224;7.484;2024-02-14T11:00:37;11.50;1.00
29777;DHT22;16677;52.224;7.484;2024-02-14T11:03:04;11.50;1.00
29777;DHT22;16677;52.224;7.484;2024-02-14T11:05:32;11.60;1.00
29777;DHT22;16677;52.224;7.484;2024-02-14T11:08:09;11.60;1.00
29777;DHT22;16677;52.224;7.484;2024-02-14T11:10:37;11.60;1.00
29777;DHT22;16677;52.224;7.484;2024-02-14T11:13:04;11.60;1.00
29777;DHT22;16677;52.224;7.484;2024-02-14T11:15:36;11.70;99.90
29777;DHT22;16677;52.224;7.484;2024-02-14T11:18:06;11.80;99.90
29777;DHT22;16677;52.224;7.484;2024-02-14T11:20:34;11.70;1.00
29777;DHT22;16677;52.224;7.484;2024-02-14T11:23:02;11.70;1.00
29777;DHT22;16677;52.224;7.484;2024-02-14T11:25:38;11.60;1.00
29777;DHT22;16677;52.224;7.484;2024-02-14T11:28:18;11.60;1.00
29777;DHT22;16677;52.224;7.484;2024-02-14T11:30:49;11.60;1.00
29777;DHT22;16677;52.224;7.484;2024-02-14T11:33:17;11.60;1.00
29777;DHT22;16677;52.224;7.484;2024-02-14T11:35:45;11.50;1.00
29777;DHT22;16677;52.224;7.484;2024-02-14T11:38:12;11.40;1.00
29777;DHT22;16677;52.224;7.484;2024-02-14T11:40:40;11.40;1.00
29777;DHT22;16677;52.224;7.484;2024-02-14T11:43:14;11.40;69.80
29777;DHT22;16677;52.224;7.484;2024-02-14T11:45:41;11.50;95.60
29777;DHT22;16677;52.224;7.484;2024-02-14T11:48:09;11.40;97.50
29777;DHT22;16677;52.224;7.484;2024-02-14T11:50:37;11.60;86.10
29777;DHT22;16677;52.224;7.484;2024-02-14T11:53:05;11.50;1.00
29777;DHT22;16677;52.224;7.484;2024-02-14T11:55:36;11.40;99.90
29777;DHT22;16677;52.224;7.484;2024-02-14T11:58:10;11.40;99.90
29777;DHT22;16677;52.224;7.484;2024-02-14T12:00:40;11.30;99.90
29777;DHT22;16677;52.224;7.484;2024-02-14T12:03:10;11.40;99.90
29777;DHT22;16677;52.224;7.484;2024-02-14T12:05:37;11.40;99.90
29777;DHT22;16677;52.224;7.484;2024-02-14T12:08:05;11.40;99.90
29777;DHT22;16677;52.224;7.484;2024-02-14T12:10:33;11.40;99.90
29777;DHT22;16677;52.224;7.484;2024-02-14T12:13:06;11.40;99.90
29777;DHT22;16677;52.224;7.484;2024-02-14T12:15:51;11.40;99.90
29777;DHT22;16677;52.224;7.484;2024-02-14T12:18:19;11.50;99.90
29777;DHT22;16677;52.224;7.484;2024-02-14T12:20:46;11.40;99.90
29777;DHT22;16677;52.224;7.484;2024-02-14T12:23:19;11.60;99.90
29777;DHT22;16677;52.224;7.484;2024-02-14T12:25:47;11.40;99.90
29777;DHT22;16677;52.224;7.484;2024-02-14T12:28:17;11.50;99.90
29777;DHT22;16677;52.224;7.484;2024-02-14T12:30:45;11.60;99.90
29777;DHT22;16677;52.224;7.484;2024-02-14T12:33:13;11.70;99.90
29777;DHT22;16677;52.224;7.484;2024-02-14T12:35:49;11.90;99.90
29777;DHT22;16677;52.224;7.484;2024-02-14T12:38:17;12.00;39.20
29777;DHT22;16677;52.224;7.484;2024-02-14T12:40:44;11.90;1.00
29777;DHT22;16677;52.224;7.484;2024-02-14T12:43:12;11.90;1.00
29777;DHT22;16677;52.224;7.484;2024-02-14T12:45:40;11.90;1.00
29777;DHT22;16677;52.224;7.484;2024-02-14T12:48:09;11.90;1.00
29777;DHT22;16677;52.224;7.484;2024-02-14T12:50:38;11.90;1.00
29777;DHT22;16677;52.224;7.484;2024-02-14T12:53:09;12.00;1.00
29777;DHT22;16677;52.224;7.484;2024-02-14T12:55:53;12.00;1.00
29777;DHT22;16677;52.224;7.484;2024-02-14T12:58:27;12.00;1.00
29777;DHT22;16677;52.224;7.484;2024-02-14T13:00:56;12.10;1.00
29777;DHT22;16677;52.224;7.484;2024-02-14T13:03:23;12.20;1.00
29777;DHT22;16677;52.224;7.484;2024-02-14T13:05:50;12.10;1.00
29777;DHT22;16677;52.224;7.484;2024-02-14T13:08:20;12.20;1.00
29777;DHT22;16677;52.224;7.484;2024-02-14T13:10:48;12.20;1.00
29777;DHT22;16677;52.224;7.484;2024-02-14T13:13:15;12.20;1.00
29777;DHT22;16677;52.224;7.484;2024-02-14T13:15:42;12.20;1.00
29777;DHT22;16677;52.224;7.484;2024-02-14T13:18:11;12.20;1.00
29777;DHT22;16677;52.224;7.484;2024-02-14T13:20:38;12.10;1.00
29777;DHT22;16677;52.224;7.484;2024-02-14T13:23:05;12.10;1.00
29777;DHT22;16677;52.224;7.484;2024-02-14T13:25:35;12.10;1.00
29777;DHT22;16677;52.224;7.484;2024-02-14T13:28:04;12.10;1.00
29777;DHT22;16677;52.224;7.484;2024-02-14T13:30:31;12.10;1.00
29777;DHT22;16677;52.224;7.484;2024-02-14T13:32:58;11.90;1.00
29777;DHT22;16677;52.224;7.484;2024-02-14T13:35:25;11.90;99.90
29777;DHT22;16677;52.224;7.484;2024-02-14T13:37:52;11.90;99.90
29777;DHT22;16677;52.224;7.484;2024-02-14T13:40:19;11.90;99.90
29777;DHT22;16677;52.224;7.484;2024-02-14T13:42:46;11.90;99.90
29777;DHT22;16677;52.224;7.484;2024-02-14T13:45:13;11.90;99.90
29777;DHT22;16677;52.224;7.484;2024-02-14T13:47:40;11.90;99.90
29777;DHT22;16677;52.224;7.484;2024-02-14T13:50:09;11.90;99.90
29777;DHT22;16677;52.224;7.484;2024-02-14T13:52:36;12.00;99.90
29777;DHT22;16677;52.224;7.484;2024-02-14T13:55:03;12.10;99.90
29777;DHT22;16677;52.224;7.484;2024-02-14T13:57:33;12.20;99.90
29777;DHT22;16677;52.224;7.484;2024-02-14T14:00:00;12.40;99.90
29777;DHT22;16677;52.224;7.484;2024-02-14T14:02:27;12.30;1.00
29777;DHT22;16677;52.224;7.484;2024-02-14T14:04:54;12.40;1.00
29777;DHT22;16677;52.224;7.484;2024-02-14T14:07:22;12.50;1.00
29777;DHT22;16677;52.224;7.484;2024-02-14T14:09:50;12.50;1.00
29777;DHT22;16677;52.224;7.484;2024-02-14T14:12:17;12.40;1.00
29777;DHT22;16677;52.224;7.484;2024-02-14T14:14:44;12.40;1.00
29777;DHT22;16677;52.224;7.484;2024-02-14T14:17:11;12.50;1.00
29777;DHT22;16677;52.224;7.484;2024-02-14T14:19:38;12.50;1.00
29777;DHT22;16677;52.224;7.484;2024-02-14T14:22:05;12.50;1.00
29777;DHT22;16677;52.224;7.484;2024-02-14T14:24:31;12.50;1.00
29777;DHT22;16677;52.224;7.484;2024-02-14T14:26:58;12.40;1.00
29777;DHT22;16677;52.224;7.484;2024-02-14T14:29:25;12.40;1.00
29777;DHT22;16677;52.224;7.484;2024-02-14T14:31:52;12.40;1.00
29777;DHT22;16677;52.224;7.484;2024-02-14T14:34:19;12.30;1.00
29777;DHT22;16677;52.224;7.484;2024-02-14T14:36:46;12.30;1.00
29777;DHT22;16677;52.224;7.484;2024-02-14T14:39:13;12.30;1.00
29777;DHT22;16677;52.224;7.484;2024-02-14T14:41:40;12.30;1.00
29777;DHT22;16677;52.224;7.484;2024-02-14T14:44:08;12.20;1.00
29777;DHT22;16677;52.224;7.484;2024-02-14T14:46:35;12.10;1.00
29777;DHT22;16677;52.224;7.484;2024-02-14T14:49:06;12.10;38.90
29777;DHT22;16677;52.224;7.484;2024-02-14T14:51:33;12.10;53.50
29777;DHT22;16677;52.224;7.484;2024-02-14T14:54:00;12.20;89.50
29777;DHT22;16677;52.224;7.484;2024-02-14T14:56:27;12.20;66.00
29777;DHT22;16677;52.224;7.484;2024-02-14T14:58:53;12.10;99.90
29777;DHT22;16677;52.224;7.484;2024-02-14T15:01:21;12.00;99.90
29777;DHT22;16677;52.224;7.484;2024-02-14T15:03:48;12.00;99.90
29777;DHT22;16677;52.224;7.484;2024-02-14T15:06:14;12.00;99.90
29777;DHT22;16677;52.224;7.484;2024-02-14T15:08:42;12.10;99.90
29777;DHT22;16677;52.224;7.484;2024-02-14T15:11:10;12.00;99.90
29777;DHT22;16677;52.224;7.484;2024-02-14T15:13:41;12.00;99.90
29777;DHT22;16677;52.224;7.484;2024-02-14T15:16:09;12.10;99.90
29777;DHT22;16677;52.224;7.484;2024-02-14T15:18:36;12.10;99.90
29777;DHT22;16677;52.224;7.484;2024-02-14T15:21:03;12.10;99.90
29777;DHT22;16677;52.224;7.484;2024-02-14T15:23:30;12.20;99.90
29777;DHT22;16677;52.224;7.484;2024-02-14T15:25:57;12.20;99.90
29777;DHT22;16677;52.224;7.484;2024-02-14T15:28:29;12.20;99.90
29777;DHT22;16677;52.224;7.484;2024-02-14T15:30:56;12.10;99.90
29777;DHT22;16677;52.224;7.484;2024-02-14T15:33:42;12.10;99.90
29777;DHT22;16677;52.224;7.484;2024-02-14T15:36:09;12.10;99.90
29777;DHT22;16677;52.224;7.484;2024-02-14T15:38:37;12.10;99.90
29777;DHT22;16677;52.224;7.484;2024-02-14T15:41:04;12.10;99.90
29777;DHT22;16677;52.224;7.484;2024-02-14T15:43:32;12.00;99.90
29777;DHT22;16677;52.224;7.484;2024-02-14T15:46:00;12.10;99.90
29777;DHT22;16677;52.224;7.484;2024-02-14T15:48:26;12.10;99.90